sensor_id;sensor_type;location;lat;lon;timestamp;P1;durP1;ratioP1;P2;durP2;ratioP2
67195;SDS011;54122;53.538;49.366;2023-08-06T00:02:19;7.85;;;4.22;;
67195;SDS011;54122;53.538;49.366;2023-08-06T00:04:50;5.43;;;3.70;;
67195;SDS011;54122;53.538;49.366;2023-08-06T00:07:22;7.35;;;3.60;;
67195;SDS011;54122;53.538;49.366;2023-08-06T00:09:53;6.80;;;3.85;;
67195;SDS011;54122;53.538;49.366;2023-08-06T00:12:24;6.25;;;4.00;;
67195;SDS011;54122;53.538;49.366;2023-08-06T00:14:56;5.82;;;3.85;;
67195;SDS011;54122;53.538;49.366;2023-08-06T00:17:27;5.60;;;3.47;;
67195;SDS011;54122;53.538;49.366;2023-08-06T00:20:00;11.65;;;3.88;;
67195;SDS011;54122;53.538;49.366;2023-08-06T00:22:37;5.78;;;3.60;;
67195;SDS011;54122;53.538;49.366;2023-08-06T00:25:09;6.97;;;3.95;;
67195;SDS011;54122;53.538;49.366;2023-08-06T00:27:40;10.40;;;4.57;;
67195;SDS011;54122;53.538;49.366;2023-08-06T00:30:11;6.85;;;3.65;;
67195;SDS011;54122;53.538;49.366;2023-08-06T00:32:43;6.07;;;3.70;;
67195;SDS011;54122;53.538;49.366;2023-08-06T00:35:15;4.70;;;3.13;;
67195;SDS011;54122;53.538;49.366;2023-08-06T00:37:46;5.43;;;3.63;;
67195;SDS011;54122;53.538;49.366;2023-08-06T00:40:19;4.10;;;3.25;;
67195;SDS011;54122;53.538;49.366;2023-08-06T00:42:53;5.55;;;3.95;;
67195;SDS011;54122;53.538;49.366;2023-08-06T00:45:24;5.25;;;3.55;;
67195;SDS011;54122;53.538;49.366;2023-08-06T00:47:56;4.00;;;3.28;;
67195;SDS011;54122;53.538;49.366;2023-08-06T00:50:28;5.80;;;3.35;;
67195;SDS011;54122;53.538;49.366;2023-08-06T00:52:59;4.25;;;3.03;;
67195;SDS011;54122;53.538;49.366;2023-08-06T00:55:32;9.02;;;3.13;;
67195;SDS011;54122;53.538;49.366;2023-08-06T00:58:04;4.40;;;3.33;;
67195;SDS011;54122;53.538;49.366;2023-08-06T01:00:35;10.75;;;3.63;;
67195;SDS011;54122;53.538;49.366;2023-08-06T01:03:07;6.28;;;3.53;;
67195;SDS011;54122;53.538;49.366;2023-08-06T01:10:49;6.97;;;3.85;;
67195;SDS011;54122;53.538;49.366;2023-08-06T01:16:08;10.10;;;3.67;;
67195;SDS011;54122;53.538;49.366;2023-08-06T01:18:41;7.90;;;3.38;;
67195;SDS011;54122;53.538;49.366;2023-08-06T01:21:14;6.82;;;3.55;;
67195;SDS011;54122;53.538;49.366;2023-08-06T01:23:46;11.13;;;3.95;;
67195;SDS011;54122;53.538;49.366;2023-08-06T01:26:33;3.92;;;3.13;;
67195;SDS011;54122;53.538;49.366;2023-08-06T01:31:57;7.38;;;3.67;;
67195;SDS011;54122;53.538;49.366;2023-08-06T01:34:31;9.38;;;3.70;;
67195;SDS011;54122;53.538;49.366;2023-08-06T01:37:05;9.00;;;3.60;;
67195;SDS011;54122;53.538;49.366;2023-08-06T01:39:36;9.88;;;4.00;;
67195;SDS011;54122;53.538;49.366;2023-08-06T01:42:10;7.75;;;3.75;;
67195;SDS011;54122;53.538;49.366;2023-08-06T01:44:41;10.73;;;3.70;;
67195;SDS011;54122;53.538;49.366;2023-08-06T01:47:13;5.43;;;3.25;;
67195;SDS011;54122;53.538;49.366;2023-08-06T01:49:44;10.95;;;3.70;;
67195;SDS011;54122;53.538;49.366;2023-08-06T01:52:16;5.82;;;3.65;;
67195;SDS011;54122;53.538;49.366;2023-08-06T01:54:47;11.27;;;3.72;;
67195;SDS011;54122;53.538;49.366;2023-08-06T01:57:18;8.25;;;3.15;;
67195;SDS011;54122;53.538;49.366;2023-08-06T01:59:50;3.88;;;3.35;;
67195;SDS011;54122;53.538;49.366;2023-08-06T02:02:21;4.82;;;2.95;;
67195;SDS011;54122;53.538;49.366;2023-08-06T02:04:52;7.10;;;3.10;;
67195;SDS011;54122;53.538;49.366;2023-08-06T02:07:24;9.75;;;3.05;;
67195;SDS011;54122;53.538;49.366;2023-08-06T02:09:55;5.07;;;3.20;;
67195;SDS011;54122;53.538;49.366;2023-08-06T02:12:26;5.15;;;3.10;;
67195;SDS011;54122;53.538;49.366;2023-08-06T02:14:58;8.60;;;3.45;;
67195;SDS011;54122;53.538;49.366;2023-08-06T02:17:29;11.32;;;3.25;;
67195;SDS011;54122;53.538;49.366;2023-08-06T02:20:00;13.52;;;3.10;;
67195;SDS011;54122;53.538;49.366;2023-08-06T02:22:32;9.65;;;3.47;;
67195;SDS011;54122;53.538;49.366;2023-08-06T02:27:36;7.72;;;3.00;;
67195;SDS011;54122;53.538;49.366;2023-08-06T02:30:08;10.85;;;3.47;;
67195;SDS011;54122;53.538;49.366;2023-08-06T02:32:39;4.32;;;2.97;;
67195;SDS011;54122;53.538;49.366;2023-08-06T02:35:10;6.95;;;2.83;;
67195;SDS011;54122;53.538;49.366;2023-08-06T02:37:42;5.78;;;3.13;;
67195;SDS011;54122;53.538;49.366;2023-08-06T02:40:13;6.05;;;3.38;;
67195;SDS011;54122;53.538;49.366;2023-08-06T02:42:45;9.23;;;3.38;;
67195;SDS011;54122;53.538;49.366;2023-08-06T02:45:16;7.70;;;3.30;;
67195;SDS011;54122;53.538;49.366;2023-08-06T02:47:47;6.40;;;3.22;;
67195;SDS011;54122;53.538;49.366;2023-08-06T02:52:50;6.03;;;2.73;;
67195;SDS011;54122;53.538;49.366;2023-08-06T02:55:22;4.10;;;2.90;;
67195;SDS011;54122;53.538;49.366;2023-08-06T02:57:53;5.63;;;3.60;;
67195;SDS011;54122;53.538;49.366;2023-08-06T03:00:24;6.25;;;2.80;;
67195;SDS011;54122;53.538;49.366;2023-08-06T03:05:27;5.18;;;2.78;;
67195;SDS011;54122;53.538;49.366;2023-08-06T03:07:58;9.40;;;3.13;;
67195;SDS011;54122;53.538;49.366;2023-08-06T03:10:30;4.43;;;2.67;;
67195;SDS011;54122;53.538;49.366;2023-08-06T03:13:01;6.70;;;3.08;;
67195;SDS011;54122;53.538;49.366;2023-08-06T03:15:32;3.95;;;3.25;;
67195;SDS011;54122;53.538;49.366;2023-08-06T03:18:05;7.70;;;3.00;;
67195;SDS011;54122;53.538;49.366;2023-08-06T03:20:37;5.28;;;3.05;;
67195;SDS011;54122;53.538;49.366;2023-08-06T03:23:08;4.97;;;2.33;;
67195;SDS011;54122;53.538;49.366;2023-08-06T03:25:39;6.30;;;2.88;;
67195;SDS011;54122;53.538;49.366;2023-08-06T03:28:11;3.65;;;2.53;;
67195;SDS011;54122;53.538;49.366;2023-08-06T03:30:42;3.65;;;2.88;;
67195;SDS011;54122;53.538;49.366;2023-08-06T03:35:45;6.18;;;2.53;;
67195;SDS011;54122;53.538;49.366;2023-08-06T03:38:16;5.45;;;3.08;;
67195;SDS011;54122;53.538;49.366;2023-08-06T03:43:19;6.13;;;3.33;;
67195;SDS011;54122;53.538;49.366;2023-08-06T03:48:22;4.30;;;2.97;;
67195;SDS011;54122;53.538;49.366;2023-08-06T03:50:53;4.05;;;2.53;;
67195;SDS011;54122;53.538;49.366;2023-08-06T03:55:56;5.28;;;2.60;;
67195;SDS011;54122;53.538;49.366;2023-08-06T03:58:30;7.82;;;2.63;;
67195;SDS011;54122;53.538;49.366;2023-08-06T04:03:33;2.67;;;2.47;;
67195;SDS011;54122;53.538;49.366;2023-08-06T04:08:36;5.32;;;2.80;;
67195;SDS011;54122;53.538;49.366;2023-08-06T04:11:08;6.65;;;2.17;;
67195;SDS011;54122;53.538;49.366;2023-08-06T04:13:43;3.97;;;2.50;;
67195;SDS011;54122;53.538;49.366;2023-08-06T04:16:15;3.78;;;2.42;;
67195;SDS011;54122;53.538;49.366;2023-08-06T04:18:46;3.28;;;2.40;;
67195;SDS011;54122;53.538;49.366;2023-08-06T04:21:18;4.00;;;2.33;;
67195;SDS011;54122;53.538;49.366;2023-08-06T04:23:49;2.67;;;2.15;;
67195;SDS011;54122;53.538;49.366;2023-08-06T04:26:20;5.00;;;2.47;;
67195;SDS011;54122;53.538;49.366;2023-08-06T04:28:52;4.07;;;2.35;;
67195;SDS011;54122;53.538;49.366;2023-08-06T04:31:23;2.50;;;2.30;;
67195;SDS011;54122;53.538;49.366;2023-08-06T04:33:55;2.90;;;2.10;;
67195;SDS011;54122;53.538;49.366;2023-08-06T04:36:26;5.72;;;2.47;;
67195;SDS011;54122;53.538;49.366;2023-08-06T04:38:57;4.13;;;2.58;;
67195;SDS011;54122;53.538;49.366;2023-08-06T04:41:29;9.23;;;2.38;;
67195;SDS011;54122;53.538;49.366;2023-08-06T04:44:00;3.60;;;2.20;;
67195;SDS011;54122;53.538;49.366;2023-08-06T04:46:31;3.20;;;2.50;;
67195;SDS011;54122;53.538;49.366;2023-08-06T04:49:03;2.40;;;2.03;;
67195;SDS011;54122;53.538;49.366;2023-08-06T04:51:34;2.92;;;2.35;;
67195;SDS011;54122;53.538;49.366;2023-08-06T04:54:06;4.22;;;2.33;;
67195;SDS011;54122;53.538;49.366;2023-08-06T04:56:37;4.30;;;2.22;;
67195;SDS011;54122;53.538;49.366;2023-08-06T04:59:08;2.45;;;2.25;;
67195;SDS011;54122;53.538;49.366;2023-08-06T05:01:40;6.55;;;2.22;;
67195;SDS011;54122;53.538;49.366;2023-08-06T05:04:11;4.90;;;1.98;;
67195;SDS011;54122;53.538;49.366;2023-08-06T05:06:43;3.33;;;1.88;;
67195;SDS011;54122;53.538;49.366;2023-08-06T05:09:14;2.45;;;2.20;;
67195;SDS011;54122;53.538;49.366;2023-08-06T05:11:46;5.93;;;2.33;;
67195;SDS011;54122;53.538;49.366;2023-08-06T05:14:18;3.03;;;2.00;;
67195;SDS011;54122;53.538;49.366;2023-08-06T05:16:49;3.28;;;2.40;;
67195;SDS011;54122;53.538;49.366;2023-08-06T05:19:21;5.70;;;2.10;;
67195;SDS011;54122;53.538;49.366;2023-08-06T05:21:52;2.80;;;2.00;;
67195;SDS011;54122;53.538;49.366;2023-08-06T05:24:24;2.42;;;2.13;;
67195;SDS011;54122;53.538;49.366;2023-08-06T05:26:55;2.60;;;2.05;;
67195;SDS011;54122;53.538;49.366;2023-08-06T05:29:26;4.03;;;1.90;;
67195;SDS011;54122;53.538;49.366;2023-08-06T05:31:58;3.17;;;2.28;;
67195;SDS011;54122;53.538;49.366;2023-08-06T05:34:29;4.25;;;2.03;;
67195;SDS011;54122;53.538;49.366;2023-08-06T05:37:00;3.38;;;2.20;;
67195;SDS011;54122;53.538;49.366;2023-08-06T05:39:32;3.50;;;2.30;;
67195;SDS011;54122;53.538;49.366;2023-08-06T05:42:03;4.38;;;1.98;;
67195;SDS011;54122;53.538;49.366;2023-08-06T05:44:35;2.55;;;2.08;;
67195;SDS011;54122;53.538;49.366;2023-08-06T05:47:07;3.47;;;2.33;;
67195;SDS011;54122;53.538;49.366;2023-08-06T05:49:38;2.85;;;2.13;;
67195;SDS011;54122;53.538;49.366;2023-08-06T05:52:09;4.50;;;2.00;;
67195;SDS011;54122;53.538;49.366;2023-08-06T05:54:41;4.75;;;2.25;;
67195;SDS011;54122;53.538;49.366;2023-08-06T05:57:12;3.08;;;1.90;;
67195;SDS011;54122;53.538;49.366;2023-08-06T05:59:43;4.43;;;2.20;;
67195;SDS011;54122;53.538;49.366;2023-08-06T06:02:15;3.20;;;2.35;;
67195;SDS011;54122;53.538;49.366;2023-08-06T06:04:46;2.60;;;1.98;;
67195;SDS011;54122;53.538;49.366;2023-08-06T06:07:18;7.28;;;3.17;;
67195;SDS011;54122;53.538;49.366;2023-08-06T06:09:49;4.55;;;2.00;;
67195;SDS011;54122;53.538;49.366;2023-08-06T06:12:21;3.50;;;2.05;;
67195;SDS011;54122;53.538;49.366;2023-08-06T06:14:53;2.83;;;2.28;;
67195;SDS011;54122;53.538;49.366;2023-08-06T06:17:24;6.82;;;2.72;;
67195;SDS011;54122;53.538;49.366;2023-08-06T06:19:56;8.43;;;5.93;;
67195;SDS011;54122;53.538;49.366;2023-08-06T06:22:27;4.20;;;3.10;;
67195;SDS011;54122;53.538;49.366;2023-08-06T06:24:59;2.30;;;1.70;;
67195;SDS011;54122;53.538;49.366;2023-08-06T06:27:30;2.65;;;1.98;;
67195;SDS011;54122;53.538;49.366;2023-08-06T06:30:02;2.40;;;1.60;;
67195;SDS011;54122;53.538;49.366;2023-08-06T06:32:34;2.60;;;1.80;;
67195;SDS011;54122;53.538;49.366;2023-08-06T06:35:06;7.82;;;1.80;;
67195;SDS011;54122;53.538;49.366;2023-08-06T06:37:38;3.28;;;1.73;;
67195;SDS011;54122;53.538;49.366;2023-08-06T06:40:09;2.90;;;1.77;;
67195;SDS011;54122;53.538;49.366;2023-08-06T06:42:41;3.88;;;1.80;;
67195;SDS011;54122;53.538;49.366;2023-08-06T06:45:12;3.00;;;1.60;;
67195;SDS011;54122;53.538;49.366;2023-08-06T06:47:44;2.25;;;2.05;;
67195;SDS011;54122;53.538;49.366;2023-08-06T06:50:15;6.43;;;2.33;;
67195;SDS011;54122;53.538;49.366;2023-08-06T06:52:46;2.83;;;1.67;;
67195;SDS011;54122;53.538;49.366;2023-08-06T06:55:18;2.85;;;1.80;;
67195;SDS011;54122;53.538;49.366;2023-08-06T06:57:49;8.27;;;2.05;;
67195;SDS011;54122;53.538;49.366;2023-08-06T07:00:20;2.38;;;2.05;;
67195;SDS011;54122;53.538;49.366;2023-08-06T07:02:52;2.15;;;1.95;;
67195;SDS011;54122;53.538;49.366;2023-08-06T07:05:23;3.75;;;1.40;;
67195;SDS011;54122;53.538;49.366;2023-08-06T07:07:55;3.97;;;1.90;;
67195;SDS011;54122;53.538;49.366;2023-08-06T07:10:26;1.90;;;1.52;;
67195;SDS011;54122;53.538;49.366;2023-08-06T07:12:57;2.60;;;1.80;;
67195;SDS011;54122;53.538;49.366;2023-08-06T07:15:29;3.97;;;2.13;;
67195;SDS011;54122;53.538;49.366;2023-08-06T07:18:00;3.67;;;2.05;;
67195;SDS011;54122;53.538;49.366;2023-08-06T07:20:32;4.90;;;1.98;;
67195;SDS011;54122;53.538;49.366;2023-08-06T07:23:04;3.83;;;1.45;;
67195;SDS011;54122;53.538;49.366;2023-08-06T07:25:36;5.10;;;1.98;;
67195;SDS011;54122;53.538;49.366;2023-08-06T07:28:10;4.22;;;1.83;;
67195;SDS011;54122;53.538;49.366;2023-08-06T07:30:41;6.65;;;1.65;;
67195;SDS011;54122;53.538;49.366;2023-08-06T07:33:14;2.38;;;1.48;;
67195;SDS011;54122;53.538;49.366;2023-08-06T07:35:45;3.25;;;2.10;;
67195;SDS011;54122;53.538;49.366;2023-08-06T07:38:17;2.13;;;1.42;;
67195;SDS011;54122;53.538;49.366;2023-08-06T07:40:48;2.13;;;1.50;;
67195;SDS011;54122;53.538;49.366;2023-08-06T07:43:20;1.80;;;1.45;;
67195;SDS011;54122;53.538;49.366;2023-08-06T07:45:51;5.05;;;1.70;;
67195;SDS011;54122;53.538;49.366;2023-08-06T07:48:23;1.80;;;1.50;;
67195;SDS011;54122;53.538;49.366;2023-08-06T07:50:54;2.97;;;1.60;;
67195;SDS011;54122;53.538;49.366;2023-08-06T07:53:26;4.22;;;1.63;;
67195;SDS011;54122;53.538;49.366;2023-08-06T07:55:59;3.65;;;2.10;;
67195;SDS011;54122;53.538;49.366;2023-08-06T07:58:32;2.30;;;1.83;;
67195;SDS011;54122;53.538;49.366;2023-08-06T08:01:05;2.30;;;1.70;;
67195;SDS011;54122;53.538;49.366;2023-08-06T08:03:37;4.53;;;1.67;;
67195;SDS011;54122;53.538;49.366;2023-08-06T08:06:09;5.10;;;1.73;;
67195;SDS011;54122;53.538;49.366;2023-08-06T08:08:40;4.57;;;1.90;;
67195;SDS011;54122;53.538;49.366;2023-08-06T08:11:11;4.22;;;1.67;;
67195;SDS011;54122;53.538;49.366;2023-08-06T08:13:43;4.65;;;1.90;;
67195;SDS011;54122;53.538;49.366;2023-08-06T08:16:14;3.67;;;1.60;;
67195;SDS011;54122;53.538;49.366;2023-08-06T08:18:46;6.75;;;1.80;;
67195;SDS011;54122;53.538;49.366;2023-08-06T08:21:17;2.17;;;1.38;;
67195;SDS011;54122;53.538;49.366;2023-08-06T08:23:48;5.22;;;1.83;;
67195;SDS011;54122;53.538;49.366;2023-08-06T08:26:20;5.00;;;1.70;;
67195;SDS011;54122;53.538;49.366;2023-08-06T08:28:52;3.05;;;1.70;;
67195;SDS011;54122;53.538;49.366;2023-08-06T08:31:23;5.15;;;1.85;;
67195;SDS011;54122;53.538;49.366;2023-08-06T08:33:54;5.55;;;1.75;;
67195;SDS011;54122;53.538;49.366;2023-08-06T08:36:26;2.65;;;1.50;;
67195;SDS011;54122;53.538;49.366;2023-08-06T08:38:57;3.13;;;1.77;;
67195;SDS011;54122;53.538;49.366;2023-08-06T08:41:29;4.53;;;1.60;;
67195;SDS011;54122;53.538;49.366;2023-08-06T08:44:02;2.88;;;1.83;;
67195;SDS011;54122;53.538;49.366;2023-08-06T08:46:36;1.45;;;1.30;;
67195;SDS011;54122;53.538;49.366;2023-08-06T08:49:10;2.80;;;1.42;;
67195;SDS011;54122;53.538;49.366;2023-08-06T08:51:42;3.10;;;1.52;;
67195;SDS011;54122;53.538;49.366;2023-08-06T08:54:21;2.22;;;1.55;;
67195;SDS011;54122;53.538;49.366;2023-08-06T08:56:54;2.38;;;1.50;;
67195;SDS011;54122;53.538;49.366;2023-08-06T08:59:28;4.90;;;1.65;;
67195;SDS011;54122;53.538;49.366;2023-08-06T09:02:00;3.00;;;1.60;;
67195;SDS011;54122;53.538;49.366;2023-08-06T09:04:32;6.85;;;1.70;;
67195;SDS011;54122;53.538;49.366;2023-08-06T09:07:05;2.08;;;1.73;;
67195;SDS011;54122;53.538;49.366;2023-08-06T09:09:39;1.90;;;1.55;;
67195;SDS011;54122;53.538;49.366;2023-08-06T09:12:15;1.73;;;1.35;;
67195;SDS011;54122;53.538;49.366;2023-08-06T09:14:47;15.73;;;1.98;;
67195;SDS011;54122;53.538;49.366;2023-08-06T09:17:19;4.60;;;1.80;;
67195;SDS011;54122;53.538;49.366;2023-08-06T09:19:51;2.75;;;1.55;;
67195;SDS011;54122;53.538;49.366;2023-08-06T09:22:23;5.28;;;1.27;;
67195;SDS011;54122;53.538;49.366;2023-08-06T09:24:55;1.98;;;1.40;;
67195;SDS011;54122;53.538;49.366;2023-08-06T09:27:27;1.60;;;1.30;;
67195;SDS011;54122;53.538;49.366;2023-08-06T09:29:59;1.88;;;1.50;;
67195;SDS011;54122;53.538;49.366;2023-08-06T09:32:46;4.93;;;1.83;;
67195;SDS011;54122;53.538;49.366;2023-08-06T09:35:18;3.42;;;1.65;;
67195;SDS011;54122;53.538;49.366;2023-08-06T09:37:49;2.95;;;1.65;;
67195;SDS011;54122;53.538;49.366;2023-08-06T09:40:31;1.67;;;1.35;;
67195;SDS011;54122;53.538;49.366;2023-08-06T09:43:02;5.63;;;1.83;;
67195;SDS011;54122;53.538;49.366;2023-08-06T09:45:36;1.98;;;1.60;;
67195;SDS011;54122;53.538;49.366;2023-08-06T09:48:08;2.80;;;1.45;;
67195;SDS011;54122;53.538;49.366;2023-08-06T09:50:41;5.55;;;1.92;;
67195;SDS011;54122;53.538;49.366;2023-08-06T09:53:12;5.25;;;1.50;;
67195;SDS011;54122;53.538;49.366;2023-08-06T09:55:44;6.22;;;1.80;;
67195;SDS011;54122;53.538;49.366;2023-08-06T09:58:16;2.95;;;1.55;;
67195;SDS011;54122;53.538;49.366;2023-08-06T10:00:48;8.02;;;1.60;;
67195;SDS011;54122;53.538;49.366;2023-08-06T10:03:19;2.83;;;1.60;;
67195;SDS011;54122;53.538;49.366;2023-08-06T10:05:53;3.33;;;1.67;;
67195;SDS011;54122;53.538;49.366;2023-08-06T10:08:27;2.58;;;1.60;;
67195;SDS011;54122;53.538;49.366;2023-08-06T10:10:58;3.75;;;1.55;;
67195;SDS011;54122;53.538;49.366;2023-08-06T10:13:32;7.75;;;1.45;;
67195;SDS011;54122;53.538;49.366;2023-08-06T10:16:05;5.60;;;1.50;;
67195;SDS011;54122;53.538;49.366;2023-08-06T10:18:37;3.13;;;1.67;;
67195;SDS011;54122;53.538;49.366;2023-08-06T10:21:10;2.47;;;1.58;;
67195;SDS011;54122;53.538;49.366;2023-08-06T10:23:41;1.88;;;1.40;;
67195;SDS011;54122;53.538;49.366;2023-08-06T10:26:16;3.35;;;1.40;;
67195;SDS011;54122;53.538;49.366;2023-08-06T10:28:47;4.65;;;1.33;;
67195;SDS011;54122;53.538;49.366;2023-08-06T10:31:19;3.50;;;1.52;;
67195;SDS011;54122;53.538;49.366;2023-08-06T10:33:50;3.78;;;1.50;;
67195;SDS011;54122;53.538;49.366;2023-08-06T10:36:22;3.05;;;1.70;;
67195;SDS011;54122;53.538;49.366;2023-08-06T10:38:52;2.17;;;1.42;;
67195;SDS011;54122;53.538;49.366;2023-08-06T10:41:28;4.40;;;1.50;;
67195;SDS011;54122;53.538;49.366;2023-08-06T10:44:05;4.65;;;1.75;;
67195;SDS011;54122;53.538;49.366;2023-08-06T10:46:35;2.20;;;1.40;;
67195;SDS011;54122;53.538;49.366;2023-08-06T10:49:06;2.53;;;1.73;;
67195;SDS011;54122;53.538;49.366;2023-08-06T10:51:33;6.07;;;1.58;;
67195;SDS011;54122;53.538;49.366;2023-08-06T10:53:59;4.25;;;1.35;;
67195;SDS011;54122;53.538;49.366;2023-08-06T10:56:26;1.85;;;1.50;;
67195;SDS011;54122;53.538;49.366;2023-08-06T10:58:56;2.58;;;1.80;;
67195;SDS011;54122;53.538;49.366;2023-08-06T11:01:23;1.75;;;1.30;;
67195;SDS011;54122;53.538;49.366;2023-08-06T11:03:50;2.58;;;1.38;;
67195;SDS011;54122;53.538;49.366;2023-08-06T11:06:19;3.20;;;1.40;;
67195;SDS011;54122;53.538;49.366;2023-08-06T11:08:50;3.42;;;1.48;;
67195;SDS011;54122;53.538;49.366;2023-08-06T11:11:18;3.40;;;1.38;;
67195;SDS011;54122;53.538;49.366;2023-08-06T11:13:46;3.95;;;1.40;;
67195;SDS011;54122;53.538;49.366;2023-08-06T11:16:23;5.50;;;1.30;;
67195;SDS011;54122;53.538;49.366;2023-08-06T11:18:53;3.30;;;1.25;;
67195;SDS011;54122;53.538;49.366;2023-08-06T11:21:20;1.70;;;1.15;;
67195;SDS011;54122;53.538;49.366;2023-08-06T11:23:47;2.70;;;1.25;;
67195;SDS011;54122;53.538;49.366;2023-08-06T11:26:18;2.30;;;1.23;;
67195;SDS011;54122;53.538;49.366;2023-08-06T11:28:45;2.10;;;1.30;;
67195;SDS011;54122;53.538;49.366;2023-08-06T11:31:18;10.80;;;1.40;;
67195;SDS011;54122;53.538;49.366;2023-08-06T11:33:52;2.15;;;1.10;;
67195;SDS011;54122;53.538;49.366;2023-08-06T11:36:36;1.48;;;1.20;;
67195;SDS011;54122;53.538;49.366;2023-08-06T11:39:06;6.30;;;1.50;;
67195;SDS011;54122;53.538;49.366;2023-08-06T11:41:33;3.55;;;1.42;;
67195;SDS011;54122;53.538;49.366;2023-08-06T11:43:59;1.77;;;1.00;;
67195;SDS011;54122;53.538;49.366;2023-08-06T11:46:26;6.05;;;1.17;;
67195;SDS011;54122;53.538;49.366;2023-08-06T11:48:56;5.32;;;1.13;;
67195;SDS011;54122;53.538;49.366;2023-08-06T11:53:54;1.67;;;1.10;;
67195;SDS011;54122;53.538;49.366;2023-08-06T11:56:25;4.90;;;1.02;;
67195;SDS011;54122;53.538;49.366;2023-08-06T11:58:52;2.70;;;1.10;;
67195;SDS011;54122;53.538;49.366;2023-08-06T12:01:20;2.13;;;1.00;;
67195;SDS011;54122;53.538;49.366;2023-08-06T12:03:46;2.05;;;1.00;;
67195;SDS011;54122;53.538;49.366;2023-08-06T12:06:12;1.80;;;0.82;;
67195;SDS011;54122;53.538;49.366;2023-08-06T12:08:39;1.20;;;0.80;;
67195;SDS011;54122;53.538;49.366;2023-08-06T12:11:07;2.30;;;0.90;;
67195;SDS011;54122;53.538;49.366;2023-08-06T12:13:34;0.98;;;0.88;;
67195;SDS011;54122;53.538;49.366;2023-08-06T12:16:00;1.38;;;0.70;;
67195;SDS011;54122;53.538;49.366;2023-08-06T12:18:27;3.92;;;0.93;;
67195;SDS011;54122;53.538;49.366;2023-08-06T12:20:55;1.60;;;0.90;;
67195;SDS011;54122;53.538;49.366;2023-08-06T12:23:22;2.85;;;0.82;;
67195;SDS011;54122;53.538;49.366;2023-08-06T12:25:48;1.35;;;0.90;;
67195;SDS011;54122;53.538;49.366;2023-08-06T12:28:15;1.00;;;0.80;;
67195;SDS011;54122;53.538;49.366;2023-08-06T12:30:41;1.10;;;0.80;;
67195;SDS011;54122;53.538;49.366;2023-08-06T12:33:10;0.95;;;0.75;;
67195;SDS011;54122;53.538;49.366;2023-08-06T12:35:36;0.82;;;0.80;;
67195;SDS011;54122;53.538;49.366;2023-08-06T12:38:04;1.85;;;1.05;;
67195;SDS011;54122;53.538;49.366;2023-08-06T12:40:30;6.22;;;1.08;;
67195;SDS011;54122;53.538;49.366;2023-08-06T12:42:57;1.48;;;1.00;;
67195;SDS011;54122;53.538;49.366;2023-08-06T12:45:24;1.15;;;0.70;;
67195;SDS011;54122;53.538;49.366;2023-08-06T12:47:51;2.72;;;1.10;;
67195;SDS011;54122;53.538;49.366;2023-08-06T12:50:17;1.90;;;0.80;;
67195;SDS011;54122;53.538;49.366;2023-08-06T12:52:44;1.38;;;0.60;;
67195;SDS011;54122;53.538;49.366;2023-08-06T12:55:10;1.27;;;0.80;;
67195;SDS011;54122;53.538;49.366;2023-08-06T12:57:37;2.15;;;0.82;;
67195;SDS011;54122;53.538;49.366;2023-08-06T13:00:03;4.20;;;1.00;;
67195;SDS011;54122;53.538;49.366;2023-08-06T13:02:30;3.45;;;1.13;;
67195;SDS011;54122;53.538;49.366;2023-08-06T13:04:57;1.52;;;0.90;;
67195;SDS011;54122;53.538;49.366;2023-08-06T13:07:23;1.45;;;0.80;;
67195;SDS011;54122;53.538;49.366;2023-08-06T13:09:51;4.15;;;1.13;;
67195;SDS011;54122;53.538;49.366;2023-08-06T13:12:17;1.15;;;0.90;;
67195;SDS011;54122;53.538;49.366;2023-08-06T13:14:45;2.63;;;0.95;;
67195;SDS011;54122;53.538;49.366;2023-08-06T13:17:12;2.80;;;0.82;;
67195;SDS011;54122;53.538;49.366;2023-08-06T13:19:38;1.80;;;0.70;;
67195;SDS011;54122;53.538;49.366;2023-08-06T13:22:05;4.78;;;0.73;;
67195;SDS011;54122;53.538;49.366;2023-08-06T13:24:34;3.00;;;0.90;;
67195;SDS011;54122;53.538;49.366;2023-08-06T13:27:00;2.45;;;0.80;;
67195;SDS011;54122;53.538;49.366;2023-08-06T13:29:27;2.53;;;0.77;;
67195;SDS011;54122;53.538;49.366;2023-08-06T13:31:53;5.35;;;1.15;;
67195;SDS011;54122;53.538;49.366;2023-08-06T13:34:20;3.28;;;0.90;;
67195;SDS011;54122;53.538;49.366;2023-08-06T13:36:46;1.95;;;0.70;;
67195;SDS011;54122;53.538;49.366;2023-08-06T13:39:13;4.05;;;0.82;;
67195;SDS011;54122;53.538;49.366;2023-08-06T13:41:42;1.30;;;0.68;;
67195;SDS011;54122;53.538;49.366;2023-08-06T13:44:12;1.35;;;0.70;;
67195;SDS011;54122;53.538;49.366;2023-08-06T13:46:40;3.03;;;0.90;;
67195;SDS011;54122;53.538;49.366;2023-08-06T13:49:07;1.90;;;0.80;;
67195;SDS011;54122;53.538;49.366;2023-08-06T13:51:33;4.53;;;0.85;;
67195;SDS011;54122;53.538;49.366;2023-08-06T13:54:01;3.13;;;0.90;;
67195;SDS011;54122;53.538;49.366;2023-08-06T13:56:28;1.98;;;0.90;;
67195;SDS011;54122;53.538;49.366;2023-08-06T13:58:55;1.42;;;0.70;;
67195;SDS011;54122;53.538;49.366;2023-08-06T14:01:22;4.88;;;0.80;;
67195;SDS011;54122;53.538;49.366;2023-08-06T14:03:48;1.85;;;0.85;;
67195;SDS011;54122;53.538;49.366;2023-08-06T14:06:14;3.67;;;0.90;;
67195;SDS011;54122;53.538;49.366;2023-08-06T14:08:41;7.40;;;0.85;;
67195;SDS011;54122;53.538;49.366;2023-08-06T14:11:07;0.88;;;0.55;;
67195;SDS011;54122;53.538;49.366;2023-08-06T14:13:36;2.70;;;0.80;;
67195;SDS011;54122;53.538;49.366;2023-08-06T14:16:02;1.58;;;0.90;;
67195;SDS011;54122;53.538;49.366;2023-08-06T14:18:29;6.88;;;0.80;;
67195;SDS011;54122;53.538;49.366;2023-08-06T14:20:55;8.30;;;0.80;;
67195;SDS011;54122;53.538;49.366;2023-08-06T14:23:22;1.73;;;0.70;;
67195;SDS011;54122;53.538;49.366;2023-08-06T14:25:48;1.52;;;0.90;;
67195;SDS011;54122;53.538;49.366;2023-08-06T14:28:15;11.30;;;0.80;;
67195;SDS011;54122;53.538;49.366;2023-08-06T14:30:41;4.10;;;1.10;;
67195;SDS011;54122;53.538;49.366;2023-08-06T14:33:08;2.50;;;0.90;;
67195;SDS011;54122;53.538;49.366;2023-08-06T14:35:34;2.45;;;0.80;;
67195;SDS011;54122;53.538;49.366;2023-08-06T14:38:01;1.42;;;0.60;;
67195;SDS011;54122;53.538;49.366;2023-08-06T14:40:27;7.70;;;0.70;;
67195;SDS011;54122;53.538;49.366;2023-08-06T14:42:59;1.60;;;0.70;;
67195;SDS011;54122;53.538;49.366;2023-08-06T14:45:27;2.15;;;0.80;;
67195;SDS011;54122;53.538;49.366;2023-08-06T14:47:53;4.18;;;0.80;;
67195;SDS011;54122;53.538;49.366;2023-08-06T14:50:19;7.15;;;0.70;;
67195;SDS011;54122;53.538;49.366;2023-08-06T14:52:46;1.77;;;0.70;;
67195;SDS011;54122;53.538;49.366;2023-08-06T14:55:17;5.78;;;0.88;;
67195;SDS011;54122;53.538;49.366;2023-08-06T14:57:49;3.17;;;0.80;;
67195;SDS011;54122;53.538;49.366;2023-08-06T15:00:16;1.13;;;0.80;;
67195;SDS011;54122;53.538;49.366;2023-08-06T15:02:43;1.98;;;0.75;;
67195;SDS011;54122;53.538;49.366;2023-08-06T15:05:09;1.67;;;0.60;;
67195;SDS011;54122;53.538;49.366;2023-08-06T15:07:37;1.02;;;0.73;;
67195;SDS011;54122;53.538;49.366;2023-08-06T15:10:04;3.03;;;1.00;;
67195;SDS011;54122;53.538;49.366;2023-08-06T15:12:31;4.35;;;0.95;;
67195;SDS011;54122;53.538;49.366;2023-08-06T15:14:58;2.15;;;0.80;;
67195;SDS011;54122;53.538;49.366;2023-08-06T15:17:26;3.38;;;0.75;;
67195;SDS011;54122;53.538;49.366;2023-08-06T15:19:57;4.03;;;0.95;;
67195;SDS011;54122;53.538;49.366;2023-08-06T15:22:25;1.77;;;0.90;;
67195;SDS011;54122;53.538;49.366;2023-08-06T15:24:52;6.95;;;0.95;;
67195;SDS011;54122;53.538;49.366;2023-08-06T15:27:18;2.85;;;0.70;;
67195;SDS011;54122;53.538;49.366;2023-08-06T15:29:45;1.27;;;0.90;;